KAMA/AMA METAR and TAF weather

Enter ICAO airport designator
Station Type Date Time Source
KAMA METAR 2018/04/20 08:53 UTC NOAA

KAMA 200853Z AUTO 13015KT 10SM SCT065 07/M02 A3015 RMK AO2 SLP183 T00721017 58009


Station Type Date Time Source
KAMA Decoded METAR 2018/04/20 08:53 UTC NOAA

AMARILLO INTERNATIONAL AIRPORT, TX, United States (KAMA) 35-13N 101-43W 1093M
Apr 20, 2018 - 04:53 AM EDT / 2018.04.20 0853 UTC
Wind: from the SE (130 degrees) at 17 MPH (15 KT):0
Visibility: 10 mile(s):0
Sky conditions: partly cloudy
Temperature: 45.0 F (7.2 C)
Dew Point: 28.9 F (-1.7 C)
Relative Humidity: 53%
Pressure (altimeter): 30.15 in. Hg (1020 hPa)
Pressure tendency: 0.03 inches (0.9 hPa) lower than three hours ago
ob: KAMA 200853Z AUTO 13015KT 10SM SCT065 07/M02 A3015 RMK AO2 SLP183 T00721017 58009
cycle: 9

Station Type Date Time Source
KAMA TAF 2018/04/20 06:22 UTC NOAA

TAF KAMA 200520Z 2006/2106 14018KT P6SM SCT250
FM201300 14022G32KT P6SM SCT010 BKN050
FM201700 14025G35KT 3SM SHRA SCT009 OVC020
FM210000 14018KT 3SM BR VCSH SCT009 OVC020


Example: see airport list